logo
Search for airport 
image banner adimage banner adimage banner ad
image banner ad

VCCK - Koggala

Located in Galle, Sri Lanka

ICAO - VCCK, IATA - KCT

Data provided by Airmate  

General information

Coordinates: N5°59'37" E80°19'7"
Elevation is 10 feet MSL.
 
View others Airports in Southern Province

Operational data

Special qualification required
Current time UTC:
Current local time:
Weather at : - ( 0 km )
METAR: YWLM 131916Z AUTO 26005KT 1000 BR BKN001 13/12 Q1021 RF00.0/000.0
View NOTAMs / SUP AIP / TFR affecting this airport [VIEW]
Communications frequencies: [VIEW]

Runways:

RWY identifierQFULength (ft)Width (ft)SurfaceLDA (ft)
0770°3389151ASP
25250°3389151ASP

Airport contact information

Address: Galle Sri Lanka

Satellite view of VCCK